ADDS METAR Data INFO
IDs: Format: Raw Decoded Include TAF

Data at: 1934 UTC 19 Jul 2018

KSDA 191915Z AUTO 30010G16KT 10SM CLR 30/21 A2980 RMK AO2
KSDA 191855Z AUTO 30007G16KT 10SM CLR 30/22 A2980 RMK AO2
KSDA 191835Z AUTO 29008KT 270V330 10SM CLR 30/23 A2981 RMK AO2
KSDA 191815Z AUTO 31012KT 10SM CLR 30/23 A2980 RMK AO2
KSDA 191755Z AUTO 29010KT 10SM CLR 30/24 A2981 RMK AO2
KSDA 191735Z AUTO 30010KT 10SM CLR 30/23 A2982 RMK AO2
KSDA 191715Z AUTO 28009G16KT 10SM FEW028 30/24 A2981 RMK AO2
KSDA 191655Z AUTO 26010KT 10SM SCT024 29/24 A2982 RMK AO2
KSDA 191635Z AUTO 26007G14KT 10SM BKN023 BKN027 29/25 A2981 RMK AO2
KSDA 191615Z AUTO 24010KT 10SM SCT020 BKN027 29/25 A2981 RMK AO2
KSDA 191555Z AUTO 23009KT 10SM SCT019 BKN027 27/25 A2981 RMK AO2
KSDA 191535Z AUTO 24008KT 10SM FEW018 FEW031 27/24 A2982 RMK AO2
KSDA 191515Z AUTO 20007KT 10SM CLR 27/24 A2982 RMK AO2
KSDA 191455Z AUTO 18011KT 10SM CLR 26/24 A2982 RMK AO2 P0001
KSDA 191435Z AUTO 18008KT 10SM CLR 26/24 A2982 RMK AO2
KSDA 191415Z AUTO 18007KT 10SM FEW055 25/24 A2982 RMK AO2
KSDA 191355Z AUTO 20006KT 10SM SCT008 BKN013 BKN043 24/23 A2983 RMK AO2 P0001
KSDA 191335Z AUTO 35011G18KT 6SM BR FEW003 BKN008 OVC042 23/23 A2987 RMK AO2
KSDA 191315Z AUTO 00000G11KT 2SM -RA FEW004 SCT042 BKN055 23/23 A2983 RMK AO2
KSDA 191255Z AUTO 15005KT 9SM CLR 24/23 A2982 RMK AO2
KSDA 191235Z AUTO 18007KT 7SM FEW095 23/23 A2983 RMK AO2
KSDA 191215Z AUTO 17003KT 8SM FEW075 BKN100 23/22 A2983 RMK AO2
KSDA 191155Z AUTO 22004KT 9SM SCT075 SCT095 23/22 A2984 RMK AO2
KSDA 191135Z AUTO 19005KT 8SM CLR 22/22 A2984 RMK AO2
KSDA 191115Z AUTO 20004KT 7SM CLR 22/22 A2984 RMK AO2
KSDA 191055Z AUTO 22005KT 9SM 22/21 A2984 RMK AO2
KSDA 191035Z AUTO 21005KT 10SM 22/22 A2984 RMK AO2
KSDA 191015Z AUTO 00000KT 10SM FEW050 SCT070 SCT090 22/22 A2985 RMK AO2
KSDA 190955Z AUTO 19011KT 10SM FEW007 SCT037 OVC070 22/22 A2984 RMK AO2 P0003
KSDA 190935Z AUTO 14008KT 110V170 5SM -RA FEW007 BKN036 OVC110 22/21 A2986 RMK AO2
KSDA 190915Z AUTO 21007KT 8SM FEW036 SCT047 BKN070 22/21 A2985 RMK AO2
KSDA 190855Z AUTO 00000KT 7SM -RA BKN036 BKN045 OVC110 22/21 A2987 RMK AO2
KSDA 190835Z AUTO 00000KT 10SM 22/21 A2988 RMK AO2
KSDA 190815Z AUTO 07003KT 10SM CLR 22/21 A2989 RMK AO2
KSDA 190755Z AUTO 00000KT 10SM CLR 22/21 A2990 RMK AO2
KSDA 190735Z AUTO 13004KT 10SM FEW044 SCT050 22/21 A2990 RMK AO2
KSDA 190715Z AUTO 00000KT 10SM SCT043 OVC050 22/21 A2991 RMK AO2
KSDA 190655Z AUTO 00000KT 10SM BKN043 OVC050 22/21 A2990 RMK AO2
KSDA 190635Z AUTO 00000KT 10SM SCT042 BKN100 22/21 A2990 RMK AO2
KSDA 190615Z AUTO 14004KT 10SM FEW041 22/21 A2990 RMK AO2
KSDA 190555Z AUTO 12005KT 10SM CLR 22/21 A2990 RMK AO2
KSDA 190535Z AUTO 12005KT 10SM FEW027 FEW120 22/21 A2991 RMK AO2
KSDA 190515Z AUTO 14005KT 10SM CLR 22/21 A2991 RMK AO2
KSDA 190455Z AUTO 14006KT 10SM CLR 22/21 A2991 RMK AO2
KSDA 190435Z AUTO 14005KT 10SM CLR 22/21 A2992 RMK AO2
KSDA 190415Z AUTO 13006KT 10SM CLR 22/21 A2991 RMK AO2
KSDA 190355Z AUTO 14004KT 10SM CLR 22/21 A2992 RMK AO2
KSDA 190335Z AUTO 00000KT 10SM CLR 22/21 A2993 RMK AO2
KSDA 190315Z AUTO 00000KT 10SM CLR 22/21 A2994 RMK AO2
KSDA 190255Z AUTO 00000KT 10SM CLR 23/21 A2993 RMK AO2
KSDA 190235Z AUTO 12003KT 10SM CLR 23/21 A2993 RMK AO2
KSDA 190215Z AUTO 00000KT 10SM CLR 23/21 A2993 RMK AO2
KSDA 190155Z AUTO 00000KT 10SM CLR 23/21 A2993 RMK AO2
KSDA 190135Z AUTO 12005KT 10SM CLR 24/21 A2993 RMK AO2
KSDA 190115Z AUTO 11005KT 10SM CLR 24/21 A2993 RMK AO2
KSDA 190055Z AUTO 11005G11KT 10SM CLR 26/21 A2994 RMK AO2
KSDA 190035Z AUTO 13007G12KT 10SM CLR 26/21 A2993 RMK AO2
KSDA 190015Z AUTO 11010KT 10SM CLR 27/21 A2993 RMK AO2
KSDA 182355Z AUTO 13009KT 10SM FEW055 27/21 A2993 RMK AO2
KSDA 182335Z AUTO 14008G15KT 10SM FEW030 FEW036 SCT060 27/21 A2994 RMK AO2
KSDA 182315Z AUTO 14009G14KT 10SM BKN031 BKN043 OVC065 27/21 A2995 RMK AO2
KSDA 182255Z AUTO 11011KT 10SM SCT032 SCT043 OVC060 27/21 A2996 RMK AO2
KSDA 182235Z AUTO 12006G13KT 10SM FEW032 BKN060 27/21 A2996 RMK AO2
KSDA 182215Z AUTO 10008KT 10SM SCT032 SCT040 BKN060 27/21 A2997 RMK AO2
KSDA 182155Z AUTO 10009G16KT 10SM FEW029 BKN060 27/21 A2997 RMK AO2
KSDA 182135Z AUTO 12010G17KT 10SM FEW029 FEW034 SCT070 27/22 A2997 RMK AO2
KSDA 182115Z AUTO 12010KT 10SM FEW029 SCT034 OVC070 27/22 A2997 RMK AO2
KSDA 182055Z AUTO 13009KT 10SM FEW023 FEW029 BKN070 27/22 A2998 RMK AO2
KSDA 182035Z AUTO 12011KT 10SM FEW026 FEW055 OVC070 27/22 A2998 RMK AO2
KSDA 182015Z AUTO 13010G18KT 10SM FEW026 OVC065 26/22 A2999 RMK AO2
KSDA 181955Z AUTO 12014KT 10SM OVC065 26/21 A2999 RMK AO2
KSDA 181935Z AUTO 11011KT 10SM BKN060 BKN075 26/21 A3000 RMK AO2
KSDA 181915Z AUTO 12014KT 10SM FEW060 SCT070 27/22 A3000 RMK AO2
KSDA 181855Z AUTO 12012KT 10SM BKN060 OVC075 26/21 A3000 RMK AO2
KSDA 181835Z AUTO 13011KT 100V160 10SM FEW024 BKN060 OVC075 27/21 A3001 RMK AO2
KSDA 181815Z AUTO 11010KT 10SM OVC050 26/21 A3002 RMK AO2
KSDA 181755Z AUTO 12010KT 10SM FEW042 BKN049 BKN080 26/21 A3003 RMK AO2
KSDA 181735Z AUTO 14011KT 10SM BKN080 26/21 A3003 RMK AO2
KSDA 181715Z AUTO 14009KT 10SM BKN075 25/21 A3004 RMK AO2
KSDA 181655Z AUTO 11010G15KT 10SM FEW018 26/22 A3004 RMK AO2
KSDA 181635Z AUTO 13010KT 10SM FEW018 BKN090 26/22 A3004 RMK AO2
KSDA 181615Z AUTO 13009KT 10SM OVC085 25/22 A3004 RMK AO2
KSDA 181555Z AUTO 11008KT 10SM OVC080 24/21 A3005 RMK AO2
KSDA 181535Z AUTO 10006KT 10SM FEW055 FEW070 BKN080 23/21 A3004 RMK AO2
KSDA 181515Z AUTO 10005KT 10SM BKN055 OVC070 23/20 A3005 RMK AO2
KSDA 181455Z AUTO 09004KT 10SM FEW047 BKN055 BKN070 23/20 A3006 RMK AO2
KSDA 181435Z AUTO 09005KT 10SM FEW046 BKN060 BKN070 22/20 A3006 RMK AO2
KSDA 181415Z AUTO 00000KT 10SM FEW060 SCT100 22/20 A3006 RMK AO2
KSDA 181355Z AUTO 00000KT 10SM SCT060 SCT085 BKN100 22/20 A3006 RMK AO2
KSDA 181335Z AUTO 05003KT 10SM BKN060 BKN070 BKN085 21/20 A3007 RMK AO2
KSDA 181315Z AUTO 05004KT 10SM BKN060 BKN085 BKN110 21/20 A3006 RMK AO2
KSDA 181255Z AUTO 06004KT 10SM FEW085 BKN110 20/20 A3006 RMK AO2
KSDA 181235Z AUTO 04003KT 10SM BKN110 19/19 A3006 RMK AO2
KSDA 181215Z AUTO 04004KT 10SM CLR 18/18 A3006 RMK AO2
KSDA 181155Z AUTO 06005KT 10SM CLR 18/18 A3006 RMK AO2
KSDA 181135Z AUTO 05003KT 10SM SCT070 17/17 A3005 RMK AO2
KSDA 181115Z AUTO 00000KT 9SM OVC070 18/18 A3006 RMK AO2
KSDA 181055Z AUTO 04004KT 9SM SCT070 17/17 A3005 RMK AO2
KSDA 181035Z AUTO 05004KT 9SM CLR 17/17 A3005 RMK AO2
KSDA 181015Z AUTO 00000KT 6SM BR 17/17 A3005 RMK AO2
KSDA 180955Z AUTO 06003KT 8SM FEW047 17/17 A3006 RMK AO2
KSDA 180935Z AUTO 05004KT 3SM BR CLR 17/17 A3005 RMK AO2
KSDA 180915Z AUTO 00000KT 5SM BR CLR 17/17 A3005 RMK AO2
KSDA 180855Z AUTO 05003KT 8SM CLR 18/17 A3005 RMK AO2
KSDA 180835Z AUTO 04004KT 6SM BR CLR 17/17 A3005 RMK AO2
KSDA 180815Z AUTO 00000KT 10SM CLR 18/18 A3006 RMK AO2
KSDA 180755Z AUTO 04004KT 8SM CLR 18/18 A3006 RMK AO2
KSDA 180735Z AUTO 03003KT 2 1/2SM BR CLR 18/17 A3007 RMK AO2